sensor_id;sensor_type;location;lat;lon;timestamp;pressure;altitude;pressure_sealevel;temperature;humidity
79372;BME280;68914;51.262;6.802;2023-04-22T00:00:25;100583.63;;;11.80;74.30
79372;BME280;68914;51.262;6.802;2023-04-22T00:01:26;100579.56;;;11.77;74.25
79372;BME280;68914;51.262;6.802;2023-04-22T00:02:26;100575.09;;;11.85;74.00
79372;BME280;68914;51.262;6.802;2023-04-22T00:03:28;100567.56;;;11.88;74.14
79372;BME280;68914;51.262;6.802;2023-04-22T00:04:29;100574.84;;;11.93;74.08
79372;BME280;68914;51.262;6.802;2023-04-22T00:05:30;100567.72;;;11.93;73.81
79372;BME280;68914;51.262;6.802;2023-04-22T00:06:30;100568.16;;;11.84;73.94
79372;BME280;68914;51.262;6.802;2023-04-22T00:07:31;100571.00;;;11.89;74.01
79372;BME280;68914;51.262;6.802;2023-04-22T00:08:32;100570.34;;;12.00;73.94
79372;BME280;68914;51.262;6.802;2023-04-22T00:09:33;100576.63;;;11.99;74.29
79372;BME280;68914;51.262;6.802;2023-04-22T00:10:34;100569.25;;;12.07;73.75
79372;BME280;68914;51.262;6.802;2023-04-22T00:11:35;100570.25;;;12.13;72.94
79372;BME280;68914;51.262;6.802;2023-04-22T00:12:35;100564.03;;;12.01;73.45
79372;BME280;68914;51.262;6.802;2023-04-22T00:13:36;100571.41;;;11.92;74.17
79372;BME280;68914;51.262;6.802;2023-04-22T00:14:37;100562.50;;;11.80;74.27
79372;BME280;68914;51.262;6.802;2023-04-22T00:15:38;100568.38;;;11.82;73.69
79372;BME280;68914;51.262;6.802;2023-04-22T00:16:38;100566.94;;;11.79;74.37
79372;BME280;68914;51.262;6.802;2023-04-22T00:17:39;100565.28;;;11.92;73.63
79372;BME280;68914;51.262;6.802;2023-04-22T00:18:40;100562.47;;;11.87;73.57
79372;BME280;68914;51.262;6.802;2023-04-22T00:19:41;100562.03;;;11.96;73.91
79372;BME280;68914;51.262;6.802;2023-04-22T00:20:42;100562.19;;;12.01;73.71
79372;BME280;68914;51.262;6.802;2023-04-22T00:21:43;100570.47;;;12.12;73.06
79372;BME280;68914;51.262;6.802;2023-04-22T00:22:44;100559.72;;;12.06;73.34
79372;BME280;68914;51.262;6.802;2023-04-22T00:23:44;100560.31;;;12.09;73.57
79372;BME280;68914;51.262;6.802;2023-04-22T00:24:46;100565.00;;;12.06;73.08
79372;BME280;68914;51.262;6.802;2023-04-22T00:25:46;100561.75;;;12.04;73.56
79372;BME280;68914;51.262;6.802;2023-04-22T00:26:47;100559.94;;;12.05;73.12
79372;BME280;68914;51.262;6.802;2023-04-22T00:27:48;100558.31;;;12.04;73.41
79372;BME280;68914;51.262;6.802;2023-04-22T00:28:49;100560.50;;;12.07;73.32
79372;BME280;68914;51.262;6.802;2023-04-22T00:29:50;100554.00;;;12.10;72.98
79372;BME280;68914;51.262;6.802;2023-04-22T00:30:50;100562.28;;;12.20;72.73
79372;BME280;68914;51.262;6.802;2023-04-22T00:31:51;100563.66;;;12.22;72.87
79372;BME280;68914;51.262;6.802;2023-04-22T00:32:52;100559.69;;;12.13;72.97
79372;BME280;68914;51.262;6.802;2023-04-22T00:33:52;100558.06;;;12.12;73.35
79372;BME280;68914;51.262;6.802;2023-04-22T00:34:53;100551.72;;;12.20;73.22
79372;BME280;68914;51.262;6.802;2023-04-22T00:35:54;100554.28;;;12.26;72.79
79372;BME280;68914;51.262;6.802;2023-04-22T00:36:56;100551.25;;;12.23;73.17
79372;BME280;68914;51.262;6.802;2023-04-22T00:37:57;100554.28;;;12.26;73.24
79372;BME280;68914;51.262;6.802;2023-04-22T00:38:57;100546.31;;;12.33;73.12
79372;BME280;68914;51.262;6.802;2023-04-22T00:39:58;100546.97;;;12.28;72.82
79372;BME280;68914;51.262;6.802;2023-04-22T00:40:59;100545.28;;;12.34;72.95
79372;BME280;68914;51.262;6.802;2023-04-22T00:42:00;100548.94;;;12.33;72.81
79372;BME280;68914;51.262;6.802;2023-04-22T00:43:01;100549.19;;;12.32;72.98
79372;BME280;68914;51.262;6.802;2023-04-22T00:44:02;100551.94;;;12.43;72.44
79372;BME280;68914;51.262;6.802;2023-04-22T00:45:04;100553.16;;;12.41;72.53
79372;BME280;68914;51.262;6.802;2023-04-22T00:46:09;100545.66;;;12.38;72.67
79372;BME280;68914;51.262;6.802;2023-04-22T00:47:11;100549.91;;;12.39;72.42
79372;BME280;68914;51.262;6.802;2023-04-22T00:48:12;100547.38;;;12.50;72.23
79372;BME280;68914;51.262;6.802;2023-04-22T00:49:13;100548.94;;;12.58;72.05
79372;BME280;68914;51.262;6.802;2023-04-22T00:50:16;100547.75;;;12.54;71.71
79372;BME280;68914;51.262;6.802;2023-04-22T00:51:17;100544.47;;;12.59;71.80
79372;BME280;68914;51.262;6.802;2023-04-22T00:52:18;100553.56;;;12.44;72.45
79372;BME280;68914;51.262;6.802;2023-04-22T00:53:18;100551.72;;;12.45;72.51
79372;BME280;68914;51.262;6.802;2023-04-22T00:54:19;100553.75;;;12.43;72.38
79372;BME280;68914;51.262;6.802;2023-04-22T00:55:19;100555.53;;;12.49;72.32
79372;BME280;68914;51.262;6.802;2023-04-22T00:56:21;100558.75;;;12.51;72.00
79372;BME280;68914;51.262;6.802;2023-04-22T00:57:21;100556.13;;;12.51;71.83
79372;BME280;68914;51.262;6.802;2023-04-22T00:58:25;100551.06;;;12.49;72.61
79372;BME280;68914;51.262;6.802;2023-04-22T00:59:27;100552.66;;;12.50;72.15
79372;BME280;68914;51.262;6.802;2023-04-22T01:00:27;100547.59;;;12.49;72.32
79372;BME280;68914;51.262;6.802;2023-04-22T01:01:28;100552.84;;;12.55;71.92
79372;BME280;68914;51.262;6.802;2023-04-22T01:02:29;100541.44;;;12.55;71.90
79372;BME280;68914;51.262;6.802;2023-04-22T01:03:32;100548.78;;;12.53;72.30
79372;BME280;68914;51.262;6.802;2023-04-22T01:04:35;100545.34;;;12.52;72.14
79372;BME280;68914;51.262;6.802;2023-04-22T01:05:35;100539.53;;;12.44;72.20
79372;BME280;68914;51.262;6.802;2023-04-22T01:06:37;100543.94;;;12.50;72.22
79372;BME280;68914;51.262;6.802;2023-04-22T01:07:39;100542.59;;;12.41;72.41
79372;BME280;68914;51.262;6.802;2023-04-22T01:08:39;100544.81;;;12.44;72.57
79372;BME280;68914;51.262;6.802;2023-04-22T01:09:40;100546.69;;;12.37;72.48
79372;BME280;68914;51.262;6.802;2023-04-22T01:10:41;100546.03;;;12.41;72.89
79372;BME280;68914;51.262;6.802;2023-04-22T01:11:43;100544.63;;;12.39;72.88
79372;BME280;68914;51.262;6.802;2023-04-22T01:12:44;100543.00;;;12.38;72.69
79372;BME280;68914;51.262;6.802;2023-04-22T01:13:45;100539.53;;;12.44;72.14
79372;BME280;68914;51.262;6.802;2023-04-22T01:14:45;100541.41;;;12.37;72.58
79372;BME280;68914;51.262;6.802;2023-04-22T01:15:46;100545.66;;;12.38;72.74
79372;BME280;68914;51.262;6.802;2023-04-22T01:16:47;100545.38;;;12.46;72.55
79372;BME280;68914;51.262;6.802;2023-04-22T01:17:49;100540.72;;;12.48;72.24
79372;BME280;68914;51.262;6.802;2023-04-22T01:18:52;100540.72;;;12.48;72.04
79372;BME280;68914;51.262;6.802;2023-04-22T01:19:53;100542.97;;;12.44;72.46
79372;BME280;68914;51.262;6.802;2023-04-22T01:20:55;100536.66;;;12.45;72.41
79372;BME280;68914;51.262;6.802;2023-04-22T01:21:57;100534.00;;;12.45;72.24
79372;BME280;68914;51.262;6.802;2023-04-22T01:23:01;100539.41;;;12.57;71.78
79372;BME280;68914;51.262;6.802;2023-04-22T01:24:03;100545.66;;;12.63;71.71
79372;BME280;68914;51.262;6.802;2023-04-22T01:25:05;100540.81;;;12.60;71.98
79372;BME280;68914;51.262;6.802;2023-04-22T01:26:06;100532.06;;;12.59;71.93
79372;BME280;68914;51.262;6.802;2023-04-22T01:27:07;100538.38;;;12.58;72.01
79372;BME280;68914;51.262;6.802;2023-04-22T01:28:08;100536.00;;;12.50;72.11
79372;BME280;68914;51.262;6.802;2023-04-22T01:29:09;100541.50;;;12.48;71.62
79372;BME280;68914;51.262;6.802;2023-04-22T01:30:11;100541.91;;;12.52;71.96
79372;BME280;68914;51.262;6.802;2023-04-22T01:31:13;100536.75;;;12.57;71.95
79372;BME280;68914;51.262;6.802;2023-04-22T01:32:14;100539.63;;;12.55;72.08
79372;BME280;68914;51.262;6.802;2023-04-22T01:33:15;100543.66;;;12.58;71.76
79372;BME280;68914;51.262;6.802;2023-04-22T01:34:16;100539.03;;;12.53;71.89
79372;BME280;68914;51.262;6.802;2023-04-22T01:35:16;100539.34;;;12.64;71.50
79372;BME280;68914;51.262;6.802;2023-04-22T01:36:17;100538.53;;;12.63;71.47
79372;BME280;68914;51.262;6.802;2023-04-22T01:37:18;100536.53;;;12.59;71.74
79372;BME280;68914;51.262;6.802;2023-04-22T01:38:19;100533.06;;;12.40;72.27
79372;BME280;68914;51.262;6.802;2023-04-22T01:39:20;100537.94;;;12.61;71.77
79372;BME280;68914;51.262;6.802;2023-04-22T01:40:21;100537.19;;;12.54;71.88
79372;BME280;68914;51.262;6.802;2023-04-22T01:41:22;100534.25;;;12.62;71.45
79372;BME280;68914;51.262;6.802;2023-04-22T01:42:24;100543.72;;;12.51;71.76
79372;BME280;68914;51.262;6.802;2023-04-22T01:43:25;100539.25;;;12.52;71.74
79372;BME280;68914;51.262;6.802;2023-04-22T01:44:25;100535.34;;;12.54;71.14
79372;BME280;68914;51.262;6.802;2023-04-22T01:45:26;100538.44;;;12.51;71.37
79372;BME280;68914;51.262;6.802;2023-04-22T01:46:27;100539.16;;;12.59;70.80
79372;BME280;68914;51.262;6.802;2023-04-22T01:47:27;100544.00;;;12.43;70.98
79372;BME280;68914;51.262;6.802;2023-04-22T01:48:28;100542.47;;;12.54;70.93
79372;BME280;68914;51.262;6.802;2023-04-22T01:49:29;100544.91;;;12.55;71.09
79372;BME280;68914;51.262;6.802;2023-04-22T01:50:29;100542.47;;;12.54;70.56
79372;BME280;68914;51.262;6.802;2023-04-22T01:51:30;100545.34;;;12.52;70.59
79372;BME280;68914;51.262;6.802;2023-04-22T01:52:31;100540.16;;;12.64;70.37
79372;BME280;68914;51.262;6.802;2023-04-22T01:53:32;100536.16;;;12.55;70.57
79372;BME280;68914;51.262;6.802;2023-04-22T01:54:33;100539.44;;;12.50;70.81
79372;BME280;68914;51.262;6.802;2023-04-22T01:55:34;100542.84;;;12.58;70.56
79372;BME280;68914;51.262;6.802;2023-04-22T01:56:35;100542.47;;;12.29;71.00
79372;BME280;68914;51.262;6.802;2023-04-22T01:57:38;100544.91;;;12.30;71.26
79372;BME280;68914;51.262;6.802;2023-04-22T01:58:39;100539.69;;;12.49;70.39
79372;BME280;68914;51.262;6.802;2023-04-22T01:59:40;100543.78;;;12.45;70.67
79372;BME280;68914;51.262;6.802;2023-04-22T02:00:40;100544.47;;;12.34;71.21
79372;BME280;68914;51.262;6.802;2023-04-22T02:01:41;100546.00;;;12.48;70.20
79372;BME280;68914;51.262;6.802;2023-04-22T02:02:42;100545.44;;;12.39;70.53
79372;BME280;68914;51.262;6.802;2023-04-22T02:03:42;100539.34;;;12.39;70.35
79372;BME280;68914;51.262;6.802;2023-04-22T02:04:44;100545.19;;;12.47;70.04
79372;BME280;68914;51.262;6.802;2023-04-22T02:05:45;100544.19;;;12.67;69.26
79372;BME280;68914;51.262;6.802;2023-04-22T02:06:46;100542.38;;;12.67;69.10
79372;BME280;68914;51.262;6.802;2023-04-22T02:07:51;100541.75;;;12.65;68.93
79372;BME280;68914;51.262;6.802;2023-04-22T02:08:51;100542.47;;;12.79;68.80
79372;BME280;68914;51.262;6.802;2023-04-22T02:09:52;100542.81;;;12.83;68.40
79372;BME280;68914;51.262;6.802;2023-04-22T02:10:53;100553.75;;;12.68;69.22
79372;BME280;68914;51.262;6.802;2023-04-22T02:11:53;100542.81;;;12.64;68.94
79372;BME280;68914;51.262;6.802;2023-04-22T02:12:55;100546.81;;;12.67;68.77
79372;BME280;68914;51.262;6.802;2023-04-22T02:13:55;100542.53;;;12.72;68.81
79372;BME280;68914;51.262;6.802;2023-04-22T02:14:57;100545.13;;;12.79;68.51
79372;BME280;68914;51.262;6.802;2023-04-22T02:15:58;100536.28;;;12.85;68.31
79372;BME280;68914;51.262;6.802;2023-04-22T02:16:59;100542.13;;;12.69;68.74
79372;BME280;68914;51.262;6.802;2023-04-22T02:18:01;100536.72;;;12.82;68.30
79372;BME280;68914;51.262;6.802;2023-04-22T02:19:02;100541.34;;;12.87;68.15
79372;BME280;68914;51.262;6.802;2023-04-22T02:20:04;100540.63;;;12.79;68.34
79372;BME280;68914;51.262;6.802;2023-04-22T02:21:06;100538.31;;;12.65;69.00
79372;BME280;68914;51.262;6.802;2023-04-22T02:22:06;100537.09;;;12.67;69.25
79372;BME280;68914;51.262;6.802;2023-04-22T02:23:07;100536.94;;;12.80;68.50
79372;BME280;68914;51.262;6.802;2023-04-22T02:24:08;100538.13;;;12.85;68.05
79372;BME280;68914;51.262;6.802;2023-04-22T02:25:09;100537.31;;;12.84;68.33
79372;BME280;68914;51.262;6.802;2023-04-22T02:26:13;100537.09;;;12.86;68.25
79372;BME280;68914;51.262;6.802;2023-04-22T02:27:13;100532.47;;;12.81;68.08
79372;BME280;68914;51.262;6.802;2023-04-22T02:28:15;100528.78;;;12.82;68.43
79372;BME280;68914;51.262;6.802;2023-04-22T02:29:15;100531.13;;;12.90;67.99
79372;BME280;68914;51.262;6.802;2023-04-22T02:30:16;100542.38;;;12.67;68.57
79372;BME280;68914;51.262;6.802;2023-04-22T02:31:17;100528.63;;;12.77;68.30
79372;BME280;68914;51.262;6.802;2023-04-22T02:32:18;100533.78;;;12.90;67.71
79372;BME280;68914;51.262;6.802;2023-04-22T02:33:18;100526.22;;;12.75;68.53
79372;BME280;68914;51.262;6.802;2023-04-22T02:34:19;100530.84;;;12.80;68.44
79372;BME280;68914;51.262;6.802;2023-04-22T02:35:20;100529.94;;;12.86;68.20
79372;BME280;68914;51.262;6.802;2023-04-22T02:36:22;100535.63;;;12.90;68.09
79372;BME280;68914;51.262;6.802;2023-04-22T02:37:23;100529.09;;;12.92;67.89
79372;BME280;68914;51.262;6.802;2023-04-22T02:38:23;100523.38;;;12.95;67.67
79372;BME280;68914;51.262;6.802;2023-04-22T02:39:24;100529.66;;;12.94;67.82
79372;BME280;68914;51.262;6.802;2023-04-22T02:40:25;100534.09;;;13.00;67.80
79372;BME280;68914;51.262;6.802;2023-04-22T02:41:26;100524.91;;;13.03;67.37
79372;BME280;68914;51.262;6.802;2023-04-22T02:42:26;100524.91;;;13.03;67.30
79372;BME280;68914;51.262;6.802;2023-04-22T02:43:28;100522.41;;;13.08;67.45
79372;BME280;68914;51.262;6.802;2023-04-22T02:44:29;100520.34;;;13.10;67.32
79372;BME280;68914;51.262;6.802;2023-04-22T02:45:30;100518.78;;;13.02;67.72
79372;BME280;68914;51.262;6.802;2023-04-22T02:46:30;100523.75;;;12.99;67.80
79372;BME280;68914;51.262;6.802;2023-04-22T02:47:31;100526.38;;;12.99;67.61
79372;BME280;68914;51.262;6.802;2023-04-22T02:48:31;100519.53;;;12.91;68.14
79372;BME280;68914;51.262;6.802;2023-04-22T02:49:32;100516.13;;;13.02;67.50
79372;BME280;68914;51.262;6.802;2023-04-22T02:50:33;100518.13;;;12.89;67.98
79372;BME280;68914;51.262;6.802;2023-04-22T02:51:33;100512.41;;;12.92;67.85
79372;BME280;68914;51.262;6.802;2023-04-22T02:52:34;100506.06;;;12.74;68.95
79372;BME280;68914;51.262;6.802;2023-04-22T02:53:34;100508.41;;;12.83;68.21
79372;BME280;68914;51.262;6.802;2023-04-22T02:54:35;100507.97;;;12.86;68.29
79372;BME280;68914;51.262;6.802;2023-04-22T02:55:37;100507.75;;;13.05;67.98
79372;BME280;68914;51.262;6.802;2023-04-22T02:56:38;100502.41;;;12.94;68.29
79372;BME280;68914;51.262;6.802;2023-04-22T02:57:39;100507.25;;;12.97;68.13
79372;BME280;68914;51.262;6.802;2023-04-22T02:58:40;100508.66;;;12.81;68.69
79372;BME280;68914;51.262;6.802;2023-04-22T02:59:41;100506.38;;;12.85;68.42
79372;BME280;68914;51.262;6.802;2023-04-22T03:00:42;100505.41;;;12.97;67.77
79372;BME280;68914;51.262;6.802;2023-04-22T03:01:43;100504.00;;;12.76;68.70
79372;BME280;68914;51.262;6.802;2023-04-22T03:02:49;100505.03;;;12.94;68.26
79372;BME280;68914;51.262;6.802;2023-04-22T03:03:52;100504.09;;;12.88;68.25
79372;BME280;68914;51.262;6.802;2023-04-22T03:04:56;100507.31;;;13.09;67.58
79372;BME280;68914;51.262;6.802;2023-04-22T03:05:57;100493.97;;;13.03;67.20
79372;BME280;68914;51.262;6.802;2023-04-22T03:06:58;100497.53;;;12.72;68.83
79372;BME280;68914;51.262;6.802;2023-04-22T03:07:59;100499.91;;;12.80;68.47
79372;BME280;68914;51.262;6.802;2023-04-22T03:09:00;100493.56;;;12.82;68.42
79372;BME280;68914;51.262;6.802;2023-04-22T03:10:01;100490.66;;;13.08;67.98
79372;BME280;68914;51.262;6.802;2023-04-22T03:11:02;100484.19;;;13.04;68.27
79372;BME280;68914;51.262;6.802;2023-04-22T03:12:03;100494.41;;;13.00;67.75
79372;BME280;68914;51.262;6.802;2023-04-22T03:13:04;100488.88;;;13.20;66.90
79372;BME280;68914;51.262;6.802;2023-04-22T03:14:05;100483.28;;;13.28;66.81
79372;BME280;68914;51.262;6.802;2023-04-22T03:15:06;100487.31;;;13.13;67.18
79372;BME280;68914;51.262;6.802;2023-04-22T03:16:06;100485.94;;;12.92;67.85
79372;BME280;68914;51.262;6.802;2023-04-22T03:17:07;100484.31;;;12.72;69.89
79372;BME280;68914;51.262;6.802;2023-04-22T03:18:08;100482.63;;;12.78;68.27
79372;BME280;68914;51.262;6.802;2023-04-22T03:19:09;100488.66;;;12.85;67.99
79372;BME280;68914;51.262;6.802;2023-04-22T03:20:11;100486.09;;;12.97;67.86
79372;BME280;68914;51.262;6.802;2023-04-22T03:21:11;100491.75;;;13.19;66.88
79372;BME280;68914;51.262;6.802;2023-04-22T03:22:14;100486.09;;;13.15;67.21
79372;BME280;68914;51.262;6.802;2023-04-22T03:23:15;100478.94;;;13.34;66.29
79372;BME280;68914;51.262;6.802;2023-04-22T03:24:15;100478.72;;;13.36;66.17
79372;BME280;68914;51.262;6.802;2023-04-22T03:25:21;100489.31;;;13.36;66.13
79372;BME280;68914;51.262;6.802;2023-04-22T03:26:28;100485.41;;;13.38;65.88
79372;BME280;68914;51.262;6.802;2023-04-22T03:27:28;100487.56;;;13.11;66.74
79372;BME280;68914;51.262;6.802;2023-04-22T03:28:29;100486.88;;;13.16;66.62
79372;BME280;68914;51.262;6.802;2023-04-22T03:29:30;100481.09;;;13.25;66.36
79372;BME280;68914;51.262;6.802;2023-04-22T03:30:30;100487.09;;;13.14;66.81
79372;BME280;68914;51.262;6.802;2023-04-22T03:31:32;100489.97;;;12.94;68.34
79372;BME280;68914;51.262;6.802;2023-04-22T03:32:33;100487.75;;;13.10;66.98
79372;BME280;68914;51.262;6.802;2023-04-22T03:33:51;100483.38;;;13.03;67.27
79372;BME280;68914;51.262;6.802;2023-04-22T03:35:03;100478.59;;;12.94;68.26
79372;BME280;68914;51.262;6.802;2023-04-22T03:36:04;100473.28;;;13.12;67.49
79372;BME280;68914;51.262;6.802;2023-04-22T03:37:05;100476.50;;;13.14;67.03
79372;BME280;68914;51.262;6.802;2023-04-22T03:38:06;100463.72;;;13.29;66.57
79372;BME280;68914;51.262;6.802;2023-04-22T03:39:10;100465.56;;;13.29;66.73
79372;BME280;68914;51.262;6.802;2023-04-22T03:40:11;100466.66;;;13.40;66.04
79372;BME280;68914;51.262;6.802;2023-04-22T03:41:12;100466.28;;;13.36;66.16
79372;BME280;68914;51.262;6.802;2023-04-22T03:42:15;100461.97;;;13.23;66.78
79372;BME280;68914;51.262;6.802;2023-04-22T03:43:17;100461.88;;;13.30;66.51
79372;BME280;68914;51.262;6.802;2023-04-22T03:44:26;100456.31;;;13.50;65.68
79372;BME280;68914;51.262;6.802;2023-04-22T03:45:28;100458.16;;;13.49;65.83
79372;BME280;68914;51.262;6.802;2023-04-22T03:46:57;100452.50;;;13.46;65.84
79372;BME280;68914;51.262;6.802;2023-04-22T03:48:03;100456.94;;;13.34;65.99
79372;BME280;68914;51.262;6.802;2023-04-22T03:49:12;100453.59;;;13.08;67.55
79372;BME280;68914;51.262;6.802;2023-04-22T03:50:13;100451.44;;;13.35;66.24
79372;BME280;68914;51.262;6.802;2023-04-22T03:51:14;100456.09;;;13.51;65.64
79372;BME280;68914;51.262;6.802;2023-04-22T03:52:15;100445.91;;;13.37;65.97
79372;BME280;68914;51.262;6.802;2023-04-22T03:53:22;100458.94;;;13.20;66.73
79372;BME280;68914;51.262;6.802;2023-04-22T03:54:23;100463.28;;;13.33;66.49
79372;BME280;68914;51.262;6.802;2023-04-22T03:55:26;100458.22;;;13.31;66.22
79372;BME280;68914;51.262;6.802;2023-04-22T03:56:27;100463.09;;;13.46;65.69
79372;BME280;68914;51.262;6.802;2023-04-22T03:57:31;100465.53;;;13.47;65.47
79372;BME280;68914;51.262;6.802;2023-04-22T03:58:33;100464.72;;;13.47;65.17
79372;BME280;68914;51.262;6.802;2023-04-22T03:59:38;100458.66;;;13.58;65.11
79372;BME280;68914;51.262;6.802;2023-04-22T04:00:39;100459.84;;;13.62;65.15
79372;BME280;68914;51.262;6.802;2023-04-22T04:01:45;100461.00;;;13.66;64.79
79372;BME280;68914;51.262;6.802;2023-04-22T04:02:46;100459.25;;;13.60;64.99
79372;BME280;68914;51.262;6.802;2023-04-22T04:03:50;100465.78;;;13.58;65.03
79372;BME280;68914;51.262;6.802;2023-04-22T04:04:51;100463.44;;;13.49;65.40
79372;BME280;68914;51.262;6.802;2023-04-22T04:05:53;100455.78;;;13.29;65.89
79372;BME280;68914;51.262;6.802;2023-04-22T04:06:55;100448.78;;;13.35;66.02
79372;BME280;68914;51.262;6.802;2023-04-22T04:07:55;100458.47;;;13.41;66.10
79372;BME280;68914;51.262;6.802;2023-04-22T04:08:57;100456.19;;;13.45;65.71
79372;BME280;68914;51.262;6.802;2023-04-22T04:09:58;100455.31;;;13.14;67.45
79372;BME280;68914;51.262;6.802;2023-04-22T04:10:59;100447.25;;;13.09;67.24
79372;BME280;68914;51.262;6.802;2023-04-22T04:12:00;100449.28;;;13.44;66.08
79372;BME280;68914;51.262;6.802;2023-04-22T04:13:06;100452.50;;;13.46;65.82
79372;BME280;68914;51.262;6.802;2023-04-22T04:14:17;100454.13;;;13.47;65.85
79372;BME280;68914;51.262;6.802;2023-04-22T04:15:22;100449.75;;;13.52;65.70
79372;BME280;68914;51.262;6.802;2023-04-22T04:16:24;100441.41;;;13.37;66.27
79372;BME280;68914;51.262;6.802;2023-04-22T04:17:31;100445.88;;;13.55;65.52
79372;BME280;68914;51.262;6.802;2023-04-22T04:18:32;100443.78;;;13.57;65.41
79372;BME280;68914;51.262;6.802;2023-04-22T04:19:33;100442.41;;;13.55;65.89
79372;BME280;68914;51.262;6.802;2023-04-22T04:20:33;100433.97;;;13.46;65.94
79372;BME280;68914;51.262;6.802;2023-04-22T04:21:34;100433.38;;;13.44;65.87
79372;BME280;68914;51.262;6.802;2023-04-22T04:22:35;100426.84;;;13.46;65.84
79372;BME280;68914;51.262;6.802;2023-04-22T04:23:39;100425.75;;;13.36;66.19
79372;BME280;68914;51.262;6.802;2023-04-22T04:24:40;100431.63;;;13.38;66.26
79372;BME280;68914;51.262;6.802;2023-04-22T04:25:48;100426.13;;;13.39;66.14
79372;BME280;68914;51.262;6.802;2023-04-22T04:26:49;100429.16;;;13.55;65.61
79372;BME280;68914;51.262;6.802;2023-04-22T04:27:59;100430.28;;;13.47;65.91
79372;BME280;68914;51.262;6.802;2023-04-22T04:29:00;100425.16;;;13.34;66.46
79372;BME280;68914;51.262;6.802;2023-04-22T04:30:01;100426.44;;;13.31;66.37
79372;BME280;68914;51.262;6.802;2023-04-22T04:31:27;100425.84;;;13.59;65.73
79372;BME280;68914;51.262;6.802;2023-04-22T04:32:30;100423.84;;;13.43;66.90
79372;BME280;68914;51.262;6.802;2023-04-22T04:33:35;100428.69;;;13.58;65.57
79372;BME280;68914;51.262;6.802;2023-04-22T04:34:36;100436.00;;;13.14;66.73
79372;BME280;68914;51.262;6.802;2023-04-22T04:35:39;100427.47;;;13.30;66.54
79372;BME280;68914;51.262;6.802;2023-04-22T04:36:42;100429.53;;;13.58;65.05
79372;BME280;68914;51.262;6.802;2023-04-22T04:37:52;100424.38;;;13.33;65.38
79372;BME280;68914;51.262;6.802;2023-04-22T04:38:54;100430.88;;;13.49;65.70
79372;BME280;68914;51.262;6.802;2023-04-22T04:39:55;100427.72;;;13.70;64.63
79372;BME280;68914;51.262;6.802;2023-04-22T04:41:01;100434.16;;;13.74;64.32
79372;BME280;68914;51.262;6.802;2023-04-22T04:42:02;100435.50;;;13.65;64.45
79372;BME280;68914;51.262;6.802;2023-04-22T04:43:06;100436.81;;;13.74;64.50
79372;BME280;68914;51.262;6.802;2023-04-22T04:44:13;100435.19;;;13.73;64.51
79372;BME280;68914;51.262;6.802;2023-04-22T04:45:14;100434.03;;;13.69;64.53
79372;BME280;68914;51.262;6.802;2023-04-22T04:46:16;100429.28;;;13.60;64.78
79372;BME280;68914;51.262;6.802;2023-04-22T04:47:20;100436.22;;;13.72;64.35
79372;BME280;68914;51.262;6.802;2023-04-22T04:48:22;100435.88;;;13.69;64.31
79372;BME280;68914;51.262;6.802;2023-04-22T04:49:26;100427.38;;;13.78;63.99
79372;BME280;68914;51.262;6.802;2023-04-22T04:50:32;100433.72;;;13.89;63.78
79372;BME280;68914;51.262;6.802;2023-04-22T04:51:35;100440.47;;;13.73;64.65
79372;BME280;68914;51.262;6.802;2023-04-22T04:52:36;100434.38;;;13.73;64.30
79372;BME280;68914;51.262;6.802;2023-04-22T04:53:36;100424.38;;;13.75;63.85
79372;BME280;68914;51.262;6.802;2023-04-22T04:54:37;100429.81;;;13.50;65.24
79372;BME280;68914;51.262;6.802;2023-04-22T04:55:39;100427.84;;;13.75;64.24
79372;BME280;68914;51.262;6.802;2023-04-22T04:56:46;100428.41;;;13.77;64.16
79372;BME280;68914;51.262;6.802;2023-04-22T04:57:47;100423.59;;;13.86;63.87
79372;BME280;68914;51.262;6.802;2023-04-22T04:58:48;100419.91;;;13.87;63.23
79372;BME280;68914;51.262;6.802;2023-04-22T04:59:52;100424.81;;;13.72;64.44
79372;BME280;68914;51.262;6.802;2023-04-22T05:00:54;100420.97;;;13.98;63.19
79372;BME280;68914;51.262;6.802;2023-04-22T05:01:55;100418.84;;;13.88;63.39
79372;BME280;68914;51.262;6.802;2023-04-22T05:02:56;100420.25;;;14.02;63.22
79372;BME280;68914;51.262;6.802;2023-04-22T05:03:57;100416.56;;;13.92;63.26
79372;BME280;68914;51.262;6.802;2023-04-22T05:04:57;100416.44;;;13.87;63.59
79372;BME280;68914;51.262;6.802;2023-04-22T05:05:58;100414.00;;;13.85;63.89
79372;BME280;68914;51.262;6.802;2023-04-22T05:06:59;100415.97;;;14.01;62.98
79372;BME280;68914;51.262;6.802;2023-04-22T05:08:00;100414.59;;;13.87;63.79
79372;BME280;68914;51.262;6.802;2023-04-22T05:09:01;100407.44;;;13.76;64.22
79372;BME280;68914;51.262;6.802;2023-04-22T05:10:02;100410.16;;;13.58;64.33
79372;BME280;68914;51.262;6.802;2023-04-22T05:11:03;100405.59;;;13.88;63.43
79372;BME280;68914;51.262;6.802;2023-04-22T05:12:04;100405.16;;;14.03;62.90
79372;BME280;68914;51.262;6.802;2023-04-22T05:13:05;100407.91;;;13.96;63.06
79372;BME280;68914;51.262;6.802;2023-04-22T05:14:06;100411.66;;;13.65;64.73
79372;BME280;68914;51.262;6.802;2023-04-22T05:15:11;100410.78;;;13.71;63.86
79372;BME280;68914;51.262;6.802;2023-04-22T05:16:12;100402.16;;;13.88;63.57
79372;BME280;68914;51.262;6.802;2023-04-22T05:17:14;100402.88;;;14.07;63.20
79372;BME280;68914;51.262;6.802;2023-04-22T05:18:16;100408.16;;;14.18;62.14
79372;BME280;68914;51.262;6.802;2023-04-22T05:19:16;100405.50;;;14.30;62.21
79372;BME280;68914;51.262;6.802;2023-04-22T05:20:18;100402.63;;;14.32;62.79
79372;BME280;68914;51.262;6.802;2023-04-22T05:21:19;100406.53;;;14.17;62.88
79372;BME280;68914;51.262;6.802;2023-04-22T05:22:20;100406.31;;;14.07;62.98
79372;BME280;68914;51.262;6.802;2023-04-22T05:23:22;100410.91;;;14.35;62.52